Storm Events Database

Event Details

Event Hail
Magnitude 1.00 in.
State TEXAS
County/Area COLLIN
WFO FWD
Begin Date 04/25/2011 09:48:00 CST-6
Begin Range 0
Begin Azimuth N
Begin Location WYLIE
Begin Lat/Lon 33.02/-96.55
End Date 04/25/2011 09:48:00 CST-6
Deaths Direct/Indirect 0/0 (fatality details below, when available...)
Injuries Direct/Indirect 0/0
Property Damage 0.00K
Crop Damage 0.00K
Episode Narrative Numerous severe thunderstorms developed along a dryline as an upper level disturbance approached north Texas. The atmosphere was very unstable and perfectly primed for supercell thunderstorms. The severe weather primarily affected areas south and east of an Erath to Cooke County line due to the positions of the dryline and a southward moving cold front. Hail up to the size of tennis balls and downburst winds up to 80-90 mph occurred across portions of the region. There was also 11 EF-0 tornadoes confirmed during the afternoon and evening hours of the 25th.
Event Narrative


All events for this episode:

Location County/Zone St. Date Time T.Z. Type Mag Dth Inj PrD CrD
Totals: 0 1 487.50K 0.00K
GARLAND DALLAS CO. TX 04/25/2011 09:40 CST-6 Hail 1.00 in. 0 0 0.00K 0.00K
MESQUITE DALLAS CO. TX 04/25/2011 09:43 CST-6 Hail 0.75 in. 0 0 0.00K 0.00K
WYLIE COLLIN CO. TX 04/25/2011 09:48 CST-6 Hail 1.00 in. 0 0 0.00K 0.00K
TRENTON FANNIN CO. TX 04/25/2011 10:02 CST-6 Hail 0.88 in. 0 0 0.00K 0.00K
WAXAHACHIE ELLIS CO. TX 04/25/2011 10:19 CST-6 Hail 0.75 in. 0 0 0.00K 0.00K
WILKES SPUR HUNT CO. TX 04/25/2011 11:30 CST-6 Lightning 0 0 0.50K 0.00K
MUENSTER COOKE CO. TX 04/25/2011 12:50 CST-6 Hail 0.88 in. 0 0 0.00K 0.00K
SIUELLS BEND COOKE CO. TX 04/25/2011 12:55 CST-6 Hail 1.75 in. 0 0 2.00K 0.00K
BLUFF DALE ERATH CO. TX 04/25/2011 12:55 CST-6 Tornado EF0 0 0 0.00K 0.00K
PALUXY HOOD CO. TX 04/25/2011 12:56 CST-6 Tornado EF0 0 0 0.00K 0.00K
PALUXY HOOD CO. TX 04/25/2011 13:00 CST-6 Tornado EF0 0 0 0.00K 0.00K
MALAKOFF HENDERSON CO. TX 04/25/2011 13:18 CST-6 Lightning 0 1 0.00K 0.00K
STONY DENTON CO. TX 04/25/2011 13:33 CST-6 Hail 2.50 in. 0 0 10.00K 0.00K
DEW FREESTONE CO. TX 04/25/2011 13:35 CST-6 Hail 1.00 in. 0 0 0.00K 0.00K
RAINBOW SOMERVELL CO. TX 04/25/2011 13:38 CST-6 Hail 1.75 in. 0 0 3.00K 0.00K
KRUM DENTON CO. TX 04/25/2011 13:47 CST-6 Hail 1.75 in. 0 0 4.00K 0.00K
MONTALBA ANDERSON CO. TX 04/25/2011 13:49 CST-6 Thunderstorm Wind 55 kts. EG 0 0 1.00K 0.00K
LAKE GRANBURY SOUTH HOOD CO. TX 04/25/2011 13:50 CST-6 Hail 1.00 in. 0 0 0.00K 0.00K
RAINBOW SOMERVELL CO. TX 04/25/2011 14:00 CST-6 Tornado EF0 0 0 0.00K 0.00K
DENTON DENTON CO. TX 04/25/2011 14:05 CST-6 Hail 0.75 in. 0 0 0.00K 0.00K
DENTON DENTON CO. TX 04/25/2011 14:05 CST-6 Thunderstorm Wind 52 kts. EG 0 0 8.00K 0.00K
CLEBURNE MUNI ARPT JOHNSON CO. TX 04/25/2011 14:10 CST-6 Tornado EF0 0 0 0.00K 0.00K
LAKE PAT CLEBURNE JOHNSON CO. TX 04/25/2011 14:15 CST-6 Tornado EF0 0 0 0.00K 0.00K
GATESVLL MOCCASIN AR CORYELL CO. TX 04/25/2011 14:38 CST-6 Hail 0.75 in. 0 0 0.00K 0.00K
RIO VISTA JOHNSON CO. TX 04/25/2011 14:40 CST-6 Hail 0.75 in. 0 0 0.00K 0.00K
FRANKSTON ANDERSON CO. TX 04/25/2011 14:42 CST-6 Hail 1.75 in. 0 0 6.00K 0.00K
MELISSA COLLIN CO. TX 04/25/2011 14:58 CST-6 Thunderstorm Wind 50 kts. EG 0 0 0.00K 0.00K
MELISSA COLLIN CO. TX 04/25/2011 15:04 CST-6 Hail 0.75 in. 0 0 0.00K 0.00K
TRENTON FANNIN CO. TX 04/25/2011 15:06 CST-6 Hail 1.00 in. 0 0 0.00K 0.00K
ITASCA HILL CO. TX 04/25/2011 15:23 CST-6 Tornado EF0 0 0 0.00K 0.00K
SULPHUR SPGS HOPKINS CO. TX 04/25/2011 15:25 CST-6 Hail 1.00 in. 0 0 0.00K 0.00K
ITASCA HILL CO. TX 04/25/2011 15:34 CST-6 Hail 1.00 in. 0 0 0.00K 0.00K
SULPHUR SPGS HOPKINS CO. TX 04/25/2011 15:35 CST-6 Thunderstorm Wind 61 kts. EG 0 0 45.00K 0.00K
MAHONEY HOPKINS CO. TX 04/25/2011 15:37 CST-6 Thunderstorm Wind 52 kts. EG 0 0 4.00K 0.00K
LAMASCO FANNIN CO. TX 04/25/2011 15:40 CST-6 Flash Flood 0 0 0.00K 0.00K
DIKE HOPKINS CO. TX 04/25/2011 15:40 CST-6 Thunderstorm Wind 52 kts. EG 0 0 10.00K 0.00K
LADONIA FANNIN CO. TX 04/25/2011 15:42 CST-6 Hail 1.00 in. 0 0 0.00K 0.00K
GRANDVIEW JOHNSON CO. TX 04/25/2011 15:48 CST-6 Hail 1.00 in. 0 0 0.00K 0.00K
PARIS LAMAR CO. TX 04/25/2011 16:00 CST-6 Hail 0.75 in. 0 0 0.00K 0.00K
PARIS LAMAR CO. TX 04/25/2011 16:00 CST-6 Thunderstorm Wind 50 kts. EG 0 0 0.00K 0.00K
BELLMEAD MCLENNAN CO. TX 04/25/2011 16:05 CST-6 Hail 0.75 in. 0 0 0.00K 0.00K
LACY LAKEVIEW MCLENNAN CO. TX 04/25/2011 16:10 CST-6 Hail 1.75 in. 0 0 20.00K 0.00K
AXTELL MCLENNAN CO. TX 04/25/2011 16:15 CST-6 Hail 1.00 in. 0 0 0.00K 0.00K
BELLMEAD MCLENNAN CO. TX 04/25/2011 16:17 CST-6 Hail 1.75 in. 0 0 25.00K 0.00K
AVALON ELLIS CO. TX 04/25/2011 16:20 CST-6 Tornado EF0 0 0 25.00K 0.00K
WACO CONNALLY ARPT MCLENNAN CO. TX 04/25/2011 16:20 CST-6 Hail 1.50 in. 0 0 7.00K 0.00K
NASH ELLIS CO. TX 04/25/2011 16:24 CST-6 Hail 1.00 in. 0 0 0.00K 0.00K
BARDWELL ELLIS CO. TX 04/25/2011 16:28 CST-6 Thunderstorm Wind 87 kts. EG 0 0 75.00K 0.00K
CAMPBELL HUNT CO. TX 04/25/2011 16:39 CST-6 Hail 1.75 in. 0 0 5.00K 0.00K
MT CALM HILL CO. TX 04/25/2011 16:39 CST-6 Hail 1.75 in. 0 0 3.00K 0.00K
EMHOUSE NAVARRO CO. TX 04/25/2011 17:00 CST-6 Thunderstorm Wind 52 kts. EG 0 0 20.00K 0.00K
CORSICANA NAVARRO CO. TX 04/25/2011 17:03 CST-6 Hail 1.75 in. 0 0 30.00K 0.00K
MEXIA LIMESTONE CO. TX 04/25/2011 17:11 CST-6 Hail 1.00 in. 0 0 0.00K 0.00K
PENELOPE HILL CO. TX 04/25/2011 17:12 CST-6 Hail 1.00 in. 0 0 0.00K 0.00K
COMO HOPKINS CO. TX 04/25/2011 17:15 CST-6 Thunderstorm Wind 52 kts. EG 0 0 7.00K 0.00K
COMO HOPKINS CO. TX 04/25/2011 17:15 CST-6 Hail 1.00 in. 0 0 0.00K 0.00K
CORSICANA NAVARRO CO. TX 04/25/2011 17:19 CST-6 Thunderstorm Wind 50 kts. EG 0 0 7.00K 0.00K
MEXIA LIMESTONE CO. TX 04/25/2011 17:20 CST-6 Hail 1.75 in. 0 0 4.00K 0.00K
ASKEW HOPKINS CO. TX 04/25/2011 17:20 CST-6 Thunderstorm Wind 55 kts. EG 0 0 3.00K 0.00K
ITALY ELLIS CO. TX 04/25/2011 17:22 CST-6 Hail 1.00 in. 0 0 0.00K 0.00K
MEXIA LIMESTONE CO. TX 04/25/2011 17:22 CST-6 Hail 1.75 in. 0 0 10.00K 0.00K
CROSS RDS HENDERSON CO. TX 04/25/2011 17:34 CST-6 Hail 1.00 in. 0 0 0.00K 0.00K
ATHENS JONES ARPT HENDERSON CO. TX 04/25/2011 17:45 CST-6 Thunderstorm Wind 53 kts. EG 0 0 0.00K 0.00K
TEAGUE FREESTONE CO. TX 04/25/2011 17:48 CST-6 Hail 2.25 in. 0 0 10.00K 0.00K
TEAGUE FREESTONE CO. TX 04/25/2011 17:50 CST-6 Hail 1.75 in. 0 0 10.00K 0.00K
CORSICANA NAVARRO CO. TX 04/25/2011 17:51 CST-6 Flash Flood 0 0 0.00K 0.00K
COOLIDGE LIMESTONE CO. TX 04/25/2011 17:53 CST-6 Tornado EF0 0 0 0.00K 0.00K
WORTHAM FREESTONE CO. TX 04/25/2011 17:59 CST-6 Tornado EF0 0 0 0.00K 0.00K
GUDE LIMESTONE CO. TX 04/25/2011 18:03 CST-6 Hail 1.75 in. 0 0 2.00K 0.00K
DEW FREESTONE CO. TX 04/25/2011 18:05 CST-6 Hail 1.75 in. 0 0 2.00K 0.00K
EUREKA NAVARRO CO. TX 04/25/2011 18:05 CST-6 Hail 1.00 in. 0 0 0.00K 0.00K
MALAKOFF HENDERSON CO. TX 04/25/2011 18:09 CST-6 Thunderstorm Wind 52 kts. EG 0 0 4.00K 0.00K
LARUE HENDERSON CO. TX 04/25/2011 18:12 CST-6 Hail 1.75 in. 0 0 4.00K 0.00K
KIRVIN FREESTONE CO. TX 04/25/2011 18:17 CST-6 Hail 1.75 in. 0 0 3.00K 0.00K
SIMBORO FREESTONE CO. TX 04/25/2011 18:25 CST-6 Tornado EF0 0 0 0.00K 0.00K
FAIRFIELD FREESTONE CO. TX 04/25/2011 18:27 CST-6 Hail 1.00 in. 0 0 0.00K 0.00K
FAIRFIELD FREESTONE CO. TX 04/25/2011 18:31 CST-6 Hail 2.50 in. 0 0 80.00K 0.00K
FAIRFIELD FREESTONE CO. TX 04/25/2011 18:32 CST-6 Hail 1.75 in. 0 0 7.00K 0.00K
OAKWOOD LEON CO. TX 04/25/2011 18:35 CST-6 Tornado EF0 0 0 0.00K 0.00K
OAKWOOD LEON CO. TX 04/25/2011 18:38 CST-6 Hail 1.75 in. 0 0 5.00K 0.00K
TUCKER ANDERSON CO. TX 04/25/2011 19:00 CST-6 Hail 0.88 in. 0 0 0.00K 0.00K
KEECHI LEON CO. TX 04/25/2011 19:04 CST-6 Thunderstorm Wind 61 kts. EG 0 0 5.00K 0.00K
ELKHART ANDERSON CO. TX 04/25/2011 19:08 CST-6 Hail 0.88 in. 0 0 0.00K 0.00K
ELKHART ANDERSON CO. TX 04/25/2011 19:27 CST-6 Hail 1.75 in. 0 0 15.00K 0.00K
ELKHART ANDERSON CO. TX 04/25/2011 19:52 CST-6 Hail 0.88 in. 0 0 0.00K 0.00K
ELKHART ANDERSON CO. TX 04/25/2011 19:55 CST-6 Hail 1.75 in. 0 0 2.00K 0.00K
ELKHART ANDERSON CO. TX 04/25/2011 19:58 CST-6 Hail 1.75 in. 0 0 4.00K 0.00K
Totals: 0 1 487.50K 0.00K